Sealevel, North Carolina
Current Conditions -  °F | °C
As of 8:56 AM on Wednesday 26 Nov 2014 (Local Time) from KNBT Reporting Station
Light Rain Light Rain  
Wind Chill: 73°   Ceiling: 3900
Heat Index: 73°   Visibility: 4mi
Dew Point: 69°   Wind: 15mph
Humidity: 87%   Direction: 170°S
Pressure: 29.72"   Gusts: 23mph
Location:  34.86°N, 76.39°W
Report Text: KNBT 261356Z AUTO 17013G20KT 4SM -RA BR FEW029 BKN039 OVC050 23/21 A2972 RMK AO2 RAB1257E10B28 SLP068 T02280206 PNO
Loading
Personal Weather Stations






























Interactive Weather Map New forecast layout! Learn more

10-Day Weather Forecast

Advertisements
Track Severe Weather on mobile